Flight Track Log - Related Links

Times and Time Zones

All times are in EDT time to prevent confusion due to time zone crossing. See the ABX902 flight status page for this flight to view local times or setup timezone preferences in your user account.

Time Position Orientation Groundspeed Altitude Reporting Facility
EDT Latitude Longitude Course Direction KTS MPH feet Rate Location/Type
Fri 10:58:40 PM 25.7847 -80.3156 267° West 153 176 1,000  Level Miami Center
Fri 11:00:01 PM 25.7808 -80.3894 267° West 225 259 2,900 1,720 Climbing Miami Center
Fri 11:01:10 PM 25.8447 -80.4211 336° Northwest 265 305 5,300 2,372 Climbing Miami Center
Fri 11:02:10 PM 25.9178 -80.4211 360° North 265 305 8,000 2,650 Climbing Miami Center
Fri 11:03:10 PM 25.9953 -80.4211 360° North 270 311 10,600 1,884 Climbing Miami Center
Fri 11:04:11 PM 26.0869 -80.4261 357° North 291 335 11,800 1,869 Climbing Miami Center
Fri 11:05:12 PM 26.1892 -80.4269 360° North 329 379 14,400 2,600 Climbing Miami Center
Fri 11:06:11 PM 26.2806 -80.4550 345° North 362 417 17,000 2,593 Climbing Miami Center
Fri 11:07:10 PM 26.3944 -80.4886 345° North 382 440 19,500 2,168 Climbing Miami Center
Fri 11:08:10 PM 26.5003 -80.5244 343° North 392 451 21,300 1,900 Climbing Miami Center
Fri 11:09:10 PM 26.6142 -80.5606 344° North 404 465 23,300 1,850 Climbing Miami Center
Fri 11:10:10 PM 26.7281 -80.5989 343° North 420 483 25,000 1,736 Climbing Miami Center
Fri 11:11:11 PM 26.8458 -80.6400 343° North 425 489 26,800 1,686 Climbing Miami Center
Fri 11:12:11 PM 26.9661 -80.6764 345° North 436 502 28,400 1,513 Climbing Miami Center
Fri 11:13:10 PM 27.0883 -80.7178 343° North 441 507 29,800 1,636 Climbing Miami Center
Fri 11:14:12 PM 27.2103 -80.7547 345° North 446 513 31,700 1,750 Climbing Miami Center
Fri 11:15:10 PM 27.3139 -80.7883 344° North 441 507 33,300 1,475 Climbing Miami Center
Fri 11:16:10 PM 27.4381 -80.8256 345° North 441 507 34,600 1,289 Climbing Miami Center
Fri 11:17:11 PM 27.5600 -80.8672 343° North 446 513 35,900 1,140 Climbing Miami Center
Fri 11:18:11 PM 27.6803 -80.9042 345° North 446 513 36,900 504 Climbing Miami Center
Fri 11:19:10 PM 27.8022 -80.9461 343° North 451 519 36,900  Level Miami Center
Fri 11:20:11 PM 27.9261 -80.9858 344° North 458 527 36,900  Level Miami Center
Fri 11:21:11 PM 28.0483 -81.0256 344° North 458 527 36,900  Level Miami Center
Fri 11:22:10 PM 28.1703 -81.0653 344° North 452 520 36,900 50 Level Miami Center
Fri 11:23:10 PM 28.3003 -81.1125 342° North 452 520 37,000 50 Climbing Miami Center
Fri 11:24:10 PM 28.4139 -81.1500 344° North 457 526 37,000 -46 Level Miami Center
Fri 11:25:20 PM 28.5519 -81.2003 342° North 453 521 36,900  Descending Jacksonville Center
Fri 11:26:20 PM 28.6736 -81.2408 344° North 453 521 37,000  Climbing Jacksonville Center
Fri 11:27:20 PM 28.7992 -81.2814 344° North 453 521 36,900 -50 Descending Jacksonville Center
Fri 11:28:20 PM 28.9231 -81.3244 343° North 459 528 36,900  Level Jacksonville Center
Fri 11:29:20 PM 29.0467 -81.3653 344° North 459 528 36,900  Level Jacksonville Center
Fri 11:30:20 PM 29.1681 -81.4086 343° North 459 528 36,900 50 Level Jacksonville Center
Fri 11:31:20 PM 29.3003 -81.4567 342° North 453 521 37,000 50 Climbing Jacksonville Center
Fri 11:32:20 PM 29.4258 -81.4978 344° North 453 521 37,000  Level Jacksonville Center
Fri 11:33:20 PM 29.5494 -81.5389 344° North 458 527 37,000  Level Jacksonville Center
Fri 11:34:20 PM 29.6753 -81.5850 342° North 463 533 37,000  Level Jacksonville Center
Fri 11:35:20 PM 29.7989 -81.6264 344° North 463 533 37,000  Level Jacksonville Center
Fri 11:36:20 PM 29.9161 -81.6656 344° North 468 539 37,000  Level Jacksonville Center
Fri 11:37:20 PM 30.0397 -81.7097 343° North 468 539 37,000 -50 Level Jacksonville Center
Fri 11:38:20 PM 30.1781 -81.7536 345° North 458 527 36,900 -50 Descending Jacksonville Center
Fri 11:39:20 PM 30.3014 -81.7956 344° North 463 533 36,900  Level Jacksonville Center
Fri 11:40:20 PM 30.4272 -81.8397 343° North 463 533 36,900 50 Level Jacksonville Center
Fri 11:41:20 PM 30.5528 -81.8842 343° North 457 526 37,000  Climbing Jacksonville Center
Fri 11:42:20 PM 30.6658 -81.9289 341° North 463 533 36,900  Descending Jacksonville Center
Fri 11:43:20 PM 30.7872 -81.9711 343° North 463 533 37,000  Climbing Jacksonville Center
Fri 11:44:20 PM 30.9108 -82.0136 344° North 463 533 36,900 -50 Descending Jacksonville Center
Fri 11:45:20 PM 31.0342 -82.0608 342° North 463 533 36,900  Level Jacksonville Center
Fri 11:46:20 PM 31.1578 -82.1061 343° North 463 533 36,900  Level Jacksonville Center
Fri 11:47:20 PM 31.2811 -82.1464 344° North 463 533 36,900 50 Level Jacksonville Center
Fri 11:48:20 PM 31.4025 -82.1939 342° North 463 533 37,000 50 Climbing Jacksonville Center
Fri 11:49:20 PM 31.5258 -82.2394 343° North 463 533 37,000  Level Jacksonville Center
Fri 11:50:20 PM 31.6494 -82.2800 344° North 463 533 37,000  Level Jacksonville Center
Fri 11:51:20 PM 31.7728 -82.3231 343° North 463 533 37,000  Level Jacksonville Center
Fri 11:52:37 PM 31.9400 -82.3769 345° North 469 540 37,000  Level Atlanta Center
Fri 11:53:37 PM 32.0617 -82.4239 342° North 469 540 37,000  Level Atlanta Center
Fri 11:54:37 PM 32.1917 -82.4706 343° North 463 533 37,000  Level Atlanta Center
Fri 11:55:37 PM 32.3236 -82.5175 343° North 463 533 37,000  Level Atlanta Center
Fri 11:56:37 PM 32.4494 -82.5669 342° North 468 539 37,000  Level Atlanta Center
Fri 11:57:37 PM 32.5775 -82.6142 343° North 468 539 37,000  Level Atlanta Center
Fri 11:58:37 PM 32.7033 -82.6639 342° North 468 539 37,000  Level Atlanta Center
Fri 11:59:37 PM 32.8331 -82.7114 343° North 473 544 37,000  Level Atlanta Center
Sat 12:00:37 AM 32.9611 -82.7589 343° North 478 550 37,000  Level Atlanta Center
Sat 12:01:37 AM 33.0889 -82.8042 343° North 483 556 37,000  Level Atlanta Center
Sat 12:02:37 AM 33.2144 -82.8544 341° North 483 556 37,000  Level Atlanta Center
Sat 12:03:37 AM 33.3486 -82.9000 344° North 496 571 37,000  Level Atlanta Center
Sat 12:04:37 AM 33.4658 -82.9431 343° North 496 571 37,000  Level Atlanta Center
Sat 12:05:37 AM 33.5936 -82.9914 343° North 496 571 37,000  Level Atlanta Center
Sat 12:06:37 AM 33.7214 -83.0397 343° North 488 562 37,000  Level Atlanta Center
Sat 12:07:37 AM 33.8553 -83.0883 343° North 488 562 37,000  Level Atlanta Center
Sat 12:08:37 AM 33.9789 -83.1369 342° North 483 556 37,000  Level Atlanta Center
Sat 12:09:37 AM 34.1128 -83.1858 343° North 489 563 37,000  Level Atlanta Center
Sat 12:10:37 AM 34.2403 -83.2347 342° North 484 557 37,000  Level Atlanta Center
Sat 12:11:37 AM 34.3722 -83.2864 342° North 490 564 37,000  Level Atlanta Center
Sat 12:12:37 AM 34.5144 -83.3406 343° North 485 558 37,000  Level Atlanta Center
Sat 12:13:37 AM 34.6461 -83.3900 343° North 485 558 37,000  Level Atlanta Center
Sat 12:14:37 AM 34.7819 -83.4192 350° North 485 558 37,000  Level Atlanta Center
Sat 12:15:37 AM 34.9156 -83.4461 351° North 485 558 37,000  Level Atlanta Center
Sat 12:16:37 AM 35.0514 -83.4756 350° North 485 558 37,000  Level Atlanta Center
Sat 12:17:37 AM 35.1892 -83.5000 352° North 485 558 37,000  Level Atlanta Center
Sat 12:18:37 AM 35.3103 -83.5272 350° North 490 564 37,000  Level Atlanta Center
Sat 12:19:37 AM 35.4481 -83.5569 350° North 495 570 37,000  Level Atlanta Center
Sat 12:20:37 AM 35.5861 -83.5842 351° North 495 570 37,000  Level Atlanta Center
Sat 12:21:37 AM 35.7197 -83.6117 351° North 495 570 37,000  Level Atlanta Center
Sat 12:22:37 AM 35.8575 -83.6417 350° North 495 570 37,000  Level Atlanta Center
Sat 12:23:37 AM 35.9911 -83.6717 350° North 495 570 37,000  Level Atlanta Center
Sat 12:25:54 AM 36.3203 -83.7397 351° North 496 571 37,000  Level Indianapolis Center
Sat 12:26:54 AM 36.4564 -83.7689 350° North 497 572 37,000  Level Indianapolis Center
Sat 12:27:55 AM 36.5772 -83.7789 356° North 506 582 37,000  Level Indianapolis Center
Sat 12:28:56 AM 36.7167 -83.7600 North 497 572 37,000  Level Indianapolis Center
Sat 12:29:56 AM 36.8558 -83.7856 352° North 502 578 37,000  Level Indianapolis Center
Sat 12:30:57 AM 36.9944 -83.8181 349° North 502 578 37,000 -50 Level Indianapolis Center
Sat 12:31:57 AM 37.1328 -83.8508 349° North 503 579 36,900 -1,587 Descending Indianapolis Center
Sat 12:32:58 AM 37.2944 -83.8900 349° North 503 579 33,800 -3,049 Descending Indianapolis Center
Sat 12:33:59 AM 37.4336 -83.9219 350° North 505 581 30,700 -2,777 Descending Indianapolis Center
Sat 12:34:59 AM 37.5683 -83.9517 350° North 492 566 28,200 -2,331 Descending Indianapolis Center
Sat 12:36:00 AM 37.6972 -83.9814 350° North 473 544 26,000 -2,380 Descending Indianapolis Center
Sat 12:37:00 AM 37.8244 -84.0111 350° North 464 534 23,400 -2,579 Descending Indianapolis Center
Sat 12:38:01 AM 37.9478 -84.0389 350° North 451 519 20,800 -2,479 Descending Indianapolis Center
Sat 12:39:01 AM 38.0694 -84.0667 350° North 442 509 18,400 -2,380 Descending Indianapolis Center
Sat 12:40:02 AM 38.1908 -84.0933 350° North 442 509 16,000 -2,361 Descending Indianapolis Center
Sat 12:41:03 AM 38.3083 -84.1228 349° North 431 496 13,600 -2,331 Descending Indianapolis Center
Sat 12:42:03 AM 38.4214 -84.1497 349° North 416 479 11,300 -1,240 Descending Indianapolis Center
Sat 12:43:04 AM 38.5153 -84.2100 333° Northwest 378 435 11,100 -149 Descending Indianapolis Center
Sat 12:44:04 AM 38.6028 -84.2775 329° Northwest 366 421 11,000 -50 Descending Indianapolis Center
Sat 12:45:05 AM 38.6764 -84.3331 329° Northwest 327 376 11,000 -248 Level Indianapolis Center
Sat 12:46:05 AM 38.7539 -84.3869 332° Northwest 316 364 10,500 -793 Descending Indianapolis Center
Sat 12:47:06 AM 38.8203 -84.4575 320° Northwest 322 371 9,400 -744 Descending Indianapolis Center
Sat 12:48:06 AM 38.8214 -84.5606 271° West 278 320 9,000 -700 Descending Indianapolis Center
Sat 12:49:06 AM 38.8247 -84.6469 273° West 251 289 8,000 -496 Descending Indianapolis Center
Sat 12:50:07 AM 38.8267 -84.7325 272° West 243 280 8,000  Level Indianapolis Center
Sat 12:51:07 AM 38.8297 -84.8178 273° West 241 277 8,000 -446 Level Indianapolis Center
Sat 12:52:08 AM 38.8328 -84.9044 273° West 244 281 7,100 -942 Descending Indianapolis Center
Sat 12:53:08 AM 38.8519 -84.9789 288° West 238 274 6,100 -545 Descending Indianapolis Center
Sat 12:54:09 AM 38.9131 -85.0239 330° Northwest 251 289 6,000  Descending Indianapolis Center
Sat 12:55:09 AM 38.9658 -85.0625 330° Northwest 227 261 6,100 50 Climbing Indianapolis Center
Sat 12:56:10 AM 39.0206 -85.0428 16° North 217 250 6,100 -347 Level Indianapolis Center
Sat 12:57:10 AM 39.0442 -84.9819 63° Northeast 196 226 5,400 -850 Descending Indianapolis Center
Sat 12:58:10 AM 39.0475 -84.9200 86° East 179 206 4,400 -843 Descending Indianapolis Center
Sat 12:59:11 AM 39.0464 -84.8575 91° East 172 198 3,700 -897 Descending Indianapolis Center
Sat 12:59:37 AM 39.0500 -84.8333 79° East 156 180 3,100 -889 Descending Cincinnati TRACON
Sat 01:00:32 AM 39.0500 -84.8000 90° East 116 133 2,500 -661 Descending Cincinnati TRACON
Sat 01:01:26 AM 39.0500 -84.7500 90° East 109 125 1,900 -667 Descending Cincinnati TRACON

Login

Don't have an account? Register now (free) for customized features, flight alerts, and more!